Time;durP1;ratioP1;P1;durP2;ratioP2;P2;SDS_P1;SDS_P2;PMS_P1;PMS_P2;Temp;Humidity;BMP_temperature;BMP_pressure;BME280_temperature;BME280_humidity;BME280_pressure;Samples;Min_cycle;Max_cycle;Signal;HPM_P1;HPM_P2
2021/08/16 00:02:35;;;;;;;7.10;4.63;;;;;;;;;;8250617;28;20337;-72
2021/08/16 00:06:41;;;;;;;10.52;5.10;;;;;;;;;;8226354;28;20445;-73
2021/08/16 00:10:46;;;;;;;7.10;4.88;;;;;;;;;;8207446;28;21098;-72
2021/08/16 00:14:51;;;;;;;8.45;4.43;;;;;;;;;;8226192;28;20364;-72
2021/08/16 00:18:57;;;;;;;8.30;4.80;;;;;;;;;;8239445;28;20373;-73
2021/08/16 00:23:02;;;;;;;9.05;5.13;;;;;;;;;;8224408;28;20322;-72
2021/08/16 00:27:07;;;;;;;6.60;5.32;;;;;;;;;;8222875;28;20498;-73
2021/08/16 00:31:13;;;;;;;11.10;5.18;;;;;;;;;;8230591;28;20503;-73
2021/08/16 00:35:19;;;;;;;7.38;4.72;;;;;;;;;;8212682;28;20049;-73
2021/08/16 00:39:24;;;;;;;8.77;4.60;;;;;;;;;;8231801;28;20635;-73
2021/08/16 00:43:29;;;;;;;6.13;4.57;;;;;;;;;;8233675;28;20064;-74
2021/08/16 00:47:35;;;;;;;6.32;4.25;;;;;;;;;;8231423;28;20488;-73
2021/08/16 00:51:41;;;;;;;7.85;4.55;;;;;;;;;;8230290;28;20461;-72
2021/08/16 00:55:46;;;;;;;7.10;4.68;;;;;;;;;;8213668;28;20506;-73
2021/08/16 00:59:52;;;;;;;6.35;3.80;;;;;;;;;;8230049;28;20096;-72
2021/08/16 01:03:59;;;;;;;7.95;4.38;;;;;;;;;;8230151;28;20468;-73
2021/08/16 01:08:04;;;;;;;8.10;4.53;;;;;;;;;;8227570;28;20464;-72
2021/08/16 01:12:10;;;;;;;10.98;4.93;;;;;;;;;;8230022;28;20057;-73
2021/08/16 01:16:17;;;;;;;8.35;4.13;;;;;;;;;;8230674;28;20352;-72
2021/08/16 01:20:31;;;;;;;7.40;3.88;;;;;;;;;;8228835;28;20461;-72
2021/08/16 01:24:37;;;;;;;6.50;4.40;;;;;;;;;;8213816;28;20484;-73
2021/08/16 01:28:42;;;;;;;9.00;4.80;;;;;;;;;;8229811;28;20049;-72
2021/08/16 01:32:48;;;;;;;20.35;11.52;;;;;;;;;;8229301;28;20049;-72
2021/08/16 01:36:54;;;;;;;8.63;4.70;;;;;;;;;;8228480;28;20408;-73
2021/08/16 01:41:00;;;;;;;8.60;4.13;;;;;;;;;;8228271;28;20507;-72
2021/08/16 01:45:07;;;;;;;7.82;4.50;;;;;;;;;;8229129;28;20456;-72
2021/08/16 01:49:13;;;;;;;9.45;4.72;;;;;;;;;;8229168;28;20467;-73
2021/08/16 01:53:18;;;;;;;9.65;5.07;;;;;;;;;;8229141;28;20099;-72
2021/08/16 01:57:24;;;;;;;9.45;5.55;;;;;;;;;;8243095;28;20507;-73
2021/08/16 02:01:29;;;;;;;7.93;4.78;;;;;;;;;;8229236;28;20380;-72
2021/08/16 02:05:34;;;;;;;9.82;4.68;;;;;;;;;;8229972;28;20383;-74
2021/08/16 02:09:39;;;;;;;10.50;4.22;;;;;;;;;;8226845;28;20360;-72
2021/08/16 02:13:44;;;;;;;5.80;3.40;;;;;;;;;;8227472;28;20053;-72
2021/08/16 02:17:49;;;;;;;6.18;3.63;;;;;;;;;;8229113;28;20045;-72
2021/08/16 02:21:54;;;;;;;10.75;3.47;;;;;;;;;;8227854;28;20045;-72
2021/08/16 02:26:00;;;;;;;8.57;4.00;;;;;;;;;;8227253;28;20522;-72
2021/08/16 02:30:06;;;;;;;9.23;4.32;;;;;;;;;;8229133;28;20510;-73
2021/08/16 02:34:11;;;;;;;6.80;4.07;;;;;;;;;;8226145;28;20364;-72
2021/08/16 02:38:16;;;;;;;8.27;4.60;;;;;;;;;;8227544;28;20073;-73
2021/08/16 02:42:21;;;;;;;8.70;4.50;;;;;;;;;;8241657;28;20360;-72
2021/08/16 02:46:26;;;;;;;8.68;4.78;;;;;;;;;;8225673;28;20416;-73
2021/08/16 02:50:32;;;;;;;11.70;4.35;;;;;;;;;;8225775;28;20333;-72
2021/08/16 02:54:37;;;;;;;7.70;4.47;;;;;;;;;;8226797;28;20045;-73
2021/08/16 02:58:42;;;;;;;9.55;5.13;;;;;;;;;;8226174;28;20095;-72
2021/08/16 03:02:47;;;;;;;7.85;4.80;;;;;;;;;;8241903;28;20049;-72
2021/08/16 03:06:53;;;;;;;9.05;4.82;;;;;;;;;;8226487;28;20379;-73
2021/08/16 03:10:58;;;;;;;17.92;4.47;;;;;;;;;;8226725;28;20436;-72
2021/08/16 03:15:05;;;;;;;10.25;4.82;;;;;;;;;;8209384;28;20053;-73
2021/08/16 03:19:10;;;;;;;15.47;4.53;;;;;;;;;;8225432;28;20072;-73
2021/08/16 03:23:15;;;;;;;10.07;5.05;;;;;;;;;;8227238;28;20345;-73
2021/08/16 03:27:20;;;;;;;13.18;5.20;;;;;;;;;;8225597;28;20480;-73
2021/08/16 03:31:26;;;;;;;13.32;5.78;;;;;;;;;;8223658;28;20482;-73
2021/08/16 03:35:31;;;;;;;10.73;4.95;;;;;;;;;;8224240;28;20042;-72
2021/08/16 03:39:38;;;;;;;11.82;5.57;;;;;;;;;;8239211;28;20387;-72
2021/08/16 03:43:42;;;;;;;11.77;5.20;;;;;;;;;;8225316;28;20445;-72
2021/08/16 03:47:47;;;;;;;8.73;4.60;;;;;;;;;;8223408;28;20465;-73
2021/08/16 03:51:53;;;;;;;13.90;5.18;;;;;;;;;;8225325;28;20322;-72
2021/08/16 03:55:58;;;;;;;7.57;4.55;;;;;;;;;;8224844;28;20426;-73
2021/08/16 04:00:09;;;;;;;9.05;4.50;;;;;;;;;;8207614;28;20045;-72
2021/08/16 04:04:15;;;;;;;7.55;4.93;;;;;;;;;;8224564;28;20054;-72
2021/08/16 04:08:20;;;;;;;8.13;4.70;;;;;;;;;;8224434;28;20356;-72
2021/08/16 04:12:25;;;;;;;14.27;5.82;;;;;;;;;;8240371;28;20407;-72
2021/08/16 04:16:31;;;;;;;9.60;5.18;;;;;;;;;;8224843;28;20353;-72
2021/08/16 04:20:36;;;;;;;6.32;4.70;;;;;;;;;;8223786;28;20504;-72
2021/08/16 04:24:41;;;;;;;7.60;4.57;;;;;;;;;;8224630;28;20399;-72
2021/08/16 04:28:46;;;;;;;6.63;4.80;;;;;;;;;;8224568;28;20460;-72
2021/08/16 04:32:51;;;;;;;8.80;5.35;;;;;;;;;;8224574;28;20357;-72
2021/08/16 04:36:56;;;;;;;7.15;4.70;;;;;;;;;;8240134;28;20468;-74
2021/08/16 04:41:02;;;;;;;13.20;5.38;;;;;;;;;;8224216;28;20054;-74
2021/08/16 04:45:10;;;;;;;10.60;5.38;;;;;;;;;;8224551;28;20373;-74
2021/08/16 04:49:16;;;;;;;7.53;4.30;;;;;;;;;;8222127;28;20485;-74
2021/08/16 04:53:21;;;;;;;8.13;4.82;;;;;;;;;;8224971;28;20329;-73
2021/08/16 04:57:40;;;;;;;6.75;4.53;;;;;;;;;;8222172;28;20411;-73
2021/08/16 05:01:48;;;;;;;9.18;5.35;;;;;;;;;;8206803;28;20341;-74
2021/08/16 05:05:55;;;;;;;9.65;4.63;;;;;;;;;;8224152;28;20518;-73
2021/08/16 05:10:00;;;;;;;7.03;4.88;;;;;;;;;;8223030;28;20353;-73
2021/08/16 05:14:06;;;;;;;8.25;4.93;;;;;;;;;;8224847;28;20488;-73
2021/08/16 05:18:12;;;;;;;13.45;6.10;;;;;;;;;;8211905;28;20491;-74
2021/08/16 05:22:17;;;;;;;7.47;5.25;;;;;;;;;;8213532;28;20357;-73
2021/08/16 05:26:22;;;;;;;7.75;5.20;;;;;;;;;;8230413;28;20045;-73
2021/08/16 05:30:27;;;;;;;6.70;5.03;;;;;;;;;;8213426;28;20281;-73
2021/08/16 05:34:32;;;;;;;13.63;5.43;;;;;;;;;;8230563;28;20469;-72
2021/08/16 05:38:37;;;;;;;8.00;5.30;;;;;;;;;;8212160;28;20420;-73
2021/08/16 05:42:42;;;;;;;9.50;5.38;;;;;;;;;;8229179;28;20033;-73
2021/08/16 05:46:48;;;;;;;7.32;4.57;;;;;;;;;;8243680;28;20345;-74
2021/08/16 05:50:53;;;;;;;8.32;5.88;;;;;;;;;;8211054;28;20483;-73
2021/08/16 05:54:58;;;;;;;7.38;4.97;;;;;;;;;;8230188;28;20079;-73
2021/08/16 05:59:03;;;;;;;9.88;5.90;;;;;;;;;;8229143;28;20338;-73
2021/08/16 06:03:08;;;;;;;9.68;5.95;;;;;;;;;;8229645;28;20045;-74
2021/08/16 06:07:14;;;;;;;10.10;6.40;;;;;;;;;;8211644;28;20045;-73
2021/08/16 06:11:19;;;;;;;8.18;5.38;;;;;;;;;;8228337;28;20354;-74
2021/08/16 06:15:24;;;;;;;8.23;5.30;;;;;;;;;;8228042;28;20053;-72
2021/08/16 06:19:29;;;;;;;7.78;5.32;;;;;;;;;;8241026;28;20357;-73
2021/08/16 06:23:36;;;;;;;6.10;4.60;;;;;;;;;;8225370;28;20579;-73
2021/08/16 06:27:41;;;;;;;8.65;5.03;;;;;;;;;;8224733;28;20365;-72
2021/08/16 06:31:46;;;;;;;10.75;4.40;;;;;;;;;;8210434;28;20326;-72
2021/08/16 06:35:53;;;;;;;13.52;6.03;;;;;;;;;;8225920;28;20353;-73
2021/08/16 06:39:58;;;;;;;10.00;4.43;;;;;;;;;;8228009;28;20391;-73
2021/08/16 06:44:04;;;;;;;9.15;4.80;;;;;;;;;;8225470;28;20483;-73
2021/08/16 06:48:11;;;;;;;7.50;4.85;;;;;;;;;;8227855;28;20056;-72
2021/08/16 06:52:21;;;;;;;11.02;5.13;;;;;;;;;;8227572;28;20392;-72
2021/08/16 06:56:26;;;;;;;9.45;4.50;;;;;;;;;;8228217;28;20515;-73
2021/08/16 07:00:32;;;;;;;7.90;4.35;;;;;;;;;;8227005;28;20045;-73
2021/08/16 07:04:39;;;;;;;8.27;5.05;;;;;;;;;;8226362;28;20364;-73
2021/08/16 07:08:45;;;;;;;9.30;4.30;;;;;;;;;;8225559;28;20354;-73
2021/08/16 07:12:50;;;;;;;6.97;4.10;;;;;;;;;;8208622;28;20867;-72
2021/08/16 07:16:55;;;;;;;8.38;4.50;;;;;;;;;;8226816;28;20494;-72
2021/08/16 07:21:03;;;;;;;13.27;4.78;;;;;;;;;;8219142;28;20054;-73
2021/08/16 07:25:09;;;;;;;7.60;4.30;;;;;;;;;;8240030;28;20346;-73
2021/08/16 07:29:15;;;;;;;9.63;4.80;;;;;;;;;;8225853;28;20054;-73
2021/08/16 07:33:21;;;;;;;7.43;4.40;;;;;;;;;;8240074;28;20444;-72
2021/08/16 07:37:26;;;;;;;13.00;4.70;;;;;;;;;;8223853;28;20388;-74
2021/08/16 07:41:31;;;;;;;8.35;4.15;;;;;;;;;;8239516;28;20333;-73
2021/08/16 07:45:37;;;;;;;12.43;4.78;;;;;;;;;;8227403;28;20453;-72
2021/08/16 07:49:42;;;;;;;8.32;4.45;;;;;;;;;;8226003;28;20480;-72
2021/08/16 07:53:47;;;;;;;7.07;3.88;;;;;;;;;;8224974;28;20465;-72
2021/08/16 07:57:53;;;;;;;8.38;3.72;;;;;;;;;;8224672;28;20492;-72
2021/08/16 08:02:01;;;;;;;;;;;;;;;;;;8224873;28;20369;-73
2021/08/16 08:06:06;;;;;;;7.40;3.42;;;;;;;;;;8227272;28;20275;-72
2021/08/16 08:10:13;;;;;;;8.93;3.35;;;;;;;;;;8224994;28;20360;-72
2021/08/16 08:14:18;;;;;;;5.53;2.90;;;;;;;;;;8239265;28;20353;-73
2021/08/16 08:18:23;;;;;;;6.43;3.35;;;;;;;;;;8245310;28;20460;-73
2021/08/16 08:22:28;;;;;;;4.68;2.58;;;;;;;;;;8239936;28;20928;-74
2021/08/16 08:26:34;;;;;;;14.45;2.80;;;;;;;;;;8254733;28;20495;-72
2021/08/16 08:30:40;;;;;;;13.02;3.03;;;;;;;;;;8257413;28;20383;-73
2021/08/16 08:34:45;;;;;;;;;;;;;;;;;;8256828;28;20495;-73
2021/08/16 08:38:50;;;;;;;8.75;2.33;;;;;;;;;;8256188;28;20260;-74
2021/08/16 08:42:56;;;;;;;6.70;2.60;;;;;;;;;;8257945;28;20060;-73
2021/08/16 08:47:01;;;;;;;7.70;2.70;;;;;;;;;;8257063;28;20347;-73
2021/08/16 08:51:07;;;;;;;5.05;2.53;;;;;;;;;;8261232;28;20459;-73
2021/08/16 08:55:14;;;;;;;7.95;2.85;;;;;;;;;;8263686;28;20476;-73
2021/08/16 08:59:40;;;;;;;11.82;3.20;;;;;;;;;;8263547;28;20045;-73
2021/08/16 09:03:52;;;;;;;5.53;3.03;;;;;;;;;;8264192;28;20386;-73
2021/08/16 09:07:59;;;;;;;8.95;2.80;;;;;;;;;;8266415;28;20363;-72
2021/08/16 09:12:05;;;;;;;8.75;2.60;;;;;;;;;;8263169;28;20518;-74
2021/08/16 09:16:11;;;;;;;4.57;2.30;;;;;;;;;;8262810;28;20063;-73
2021/08/16 09:20:22;;;;;;;9.07;2.60;;;;;;;;;;8263391;28;20376;-72
2021/08/16 09:24:34;;;;;;;7.28;2.42;;;;;;;;;;8261959;28;20464;-73
2021/08/16 09:28:39;;;;;;;6.55;2.35;;;;;;;;;;8263047;28;20061;-72
2021/08/16 09:32:44;;;;;;;5.03;2.53;;;;;;;;;;8262198;28;20394;-73
2021/08/16 09:36:50;;;;;;;7.20;2.95;;;;;;;;;;8261115;28;20471;-73
2021/08/16 09:40:55;;;;;;;7.85;2.75;;;;;;;;;;8262685;28;20049;-73
2021/08/16 09:45:00;;;;;;;4.00;2.55;;;;;;;;;;8243558;28;20380;-73
2021/08/16 09:49:07;;;;;;;7.80;2.75;;;;;;;;;;8261381;28;20492;-73
2021/08/16 09:53:15;;;;;;;5.78;2.50;;;;;;;;;;8245982;28;20474;-73
2021/08/16 09:57:23;;;;;;;7.50;2.35;;;;;;;;;;8260031;28;20368;-74
2021/08/16 10:01:27;;;;;;;3.88;1.88;;;;;;;;;;8259172;28;20067;-73
2021/08/16 10:05:37;;;;;;;5.25;2.35;;;;;;;;;;8259641;28;20491;-72
2021/08/16 10:09:45;;;;;;;5.13;2.42;;;;;;;;;;8260941;28;20395;-74
2021/08/16 10:13:56;;;;;;;;;;;;;;;;;;8259575;28;20368;-74
2021/08/16 10:18:02;;;;;;;7.18;2.70;;;;;;;;;;8241789;28;19920;-72
2021/08/16 10:22:08;;;;;;;6.85;2.63;;;;;;;;;;8262801;28;20041;-74
2021/08/16 10:26:31;;;;;;;7.35;2.97;;;;;;;;;;8258581;28;20049;-73
2021/08/16 10:30:45;;;;;;;3.95;1.98;;;;;;;;;;8243064;28;20418;-73
2021/08/16 10:34:51;;;;;;;3.55;1.70;;;;;;;;;;8242802;28;20490;-74
2021/08/16 10:39:00;;;;;;;3.20;1.70;;;;;;;;;;8260679;28;20360;-74
2021/08/16 10:43:10;;;;;;;8.75;2.08;;;;;;;;;;8241395;28;20325;-72
2021/08/16 10:47:28;;;;;;;5.82;1.50;;;;;;;;;;8258715;28;20371;-73
2021/08/16 10:51:49;;;;;;;5.90;2.00;;;;;;;;;;8238588;28;20349;-73
2021/08/16 10:55:55;;;;;;;9.57;2.13;;;;;;;;;;8259249;28;20382;-74
2021/08/16 11:00:00;;;;;;;4.57;1.77;;;;;;;;;;8259357;28;20075;-74
2021/08/16 11:04:13;;;;;;;3.87;2.10;;;;;;;;;;8241767;28;20049;-74
2021/08/16 11:08:29;;;;;;;3.30;2.00;;;;;;;;;;8258943;28;20472;-73
2021/08/16 11:12:42;;;;;;;9.68;2.17;;;;;;;;;;8244134;28;20498;-73
2021/08/16 11:16:50;;;;;;;6.85;1.85;;;;;;;;;;8241349;28;20483;-74
2021/08/16 11:21:03;;;;;;;7.18;1.90;;;;;;;;;;8256264;28;20397;-73
2021/08/16 11:25:09;;;;;;;8.63;1.98;;;;;;;;;;8256832;28;20072;-72
2021/08/16 11:29:21;;;;;;;3.35;2.00;;;;;;;;;;8258174;28;20367;-73
2021/08/16 11:33:28;;;;;;;6.65;2.00;;;;;;;;;;8259783;28;20068;-73
2021/08/16 11:37:39;;;;;;;3.38;1.70;;;;;;;;;;8256472;28;20049;-72
2021/08/16 11:41:44;;;;;;;2.78;1.80;;;;;;;;;;8258153;28;20344;-73
2021/08/16 11:45:49;;;;;;;7.53;1.85;;;;;;;;;;8257422;28;20403;-72
2021/08/16 11:50:12;;;;;;;3.88;1.40;;;;;;;;;;8258572;28;20404;-73
2021/08/16 11:54:26;;;;;;;10.50;1.70;;;;;;;;;;8257895;28;20474;-73
2021/08/16 11:58:42;;;;;;;5.63;1.88;;;;;;;;;;8239666;28;20405;-73
2021/08/16 12:02:47;;;;;;;5.60;1.70;;;;;;;;;;8256605;28;20049;-72
2021/08/16 12:06:56;;;;;;;8.48;1.60;;;;;;;;;;8256009;28;20472;-73
2021/08/16 12:11:01;;;;;;;7.07;1.77;;;;;;;;;;8256251;28;20488;-72
2021/08/16 12:15:15;;;;;;;8.05;1.60;;;;;;;;;;8256562;28;20452;-74
2021/08/16 12:19:20;;;;;;;5.75;1.88;;;;;;;;;;8257815;28;20411;-72
2021/08/16 12:23:38;;;;;;;4.63;2.20;;;;;;;;;;8258681;28;20029;-73
2021/08/16 12:28:00;;;;;;;6.68;1.85;;;;;;;;;;8419982;27;20557;-72
2021/08/16 12:32:23;;;;;;;3.03;1.88;;;;;;;;;;8385804;27;20221;-72
2021/08/16 12:36:43;;;;;;;6.93;2.00;;;;;;;;;;8388638;27;20567;-73
2021/08/16 12:41:08;;;;;;;6.80;1.50;;;;;;;;;;8419868;27;20937;-72
2021/08/16 12:45:25;;;;;;;2.67;1.65;;;;;;;;;;8419283;27;20860;-72
2021/08/16 12:49:41;;;;;;;3.78;2.03;;;;;;;;;;8419371;27;21051;-73
2021/08/16 12:54:02;;;;;;;4.22;1.67;;;;;;;;;;8378400;27;1249815;-72
2021/08/16 12:58:19;;;;;;;8.48;2.30;;;;;;;;;;8420478;27;20876;-72
2021/08/16 13:02:35;;;;;;;5.10;1.85;;;;;;;;;;8419427;27;20844;-73
2021/08/16 13:06:52;;;;;;;6.03;2.17;;;;;;;;;;8420005;27;20939;-73
2021/08/16 13:11:06;;;;;;;4.25;1.95;;;;;;;;;;8377212;27;1263953;-72
2021/08/16 13:15:22;;;;;;;6.57;2.00;;;;;;;;;;8419731;27;21055;-74
2021/08/16 13:19:38;;;;;;;6.90;2.50;;;;;;;;;;8419800;27;20840;-73
2021/08/16 13:23:55;;;;;;;5.60;2.40;;;;;;;;;;8419363;27;20817;-73
2021/08/16 13:28:11;;;;;;;6.60;2.08;;;;;;;;;;8419103;27;20849;-72
2021/08/16 13:32:27;;;;;;;7.82;2.60;;;;;;;;;;8421342;27;20805;-73
2021/08/16 13:36:43;;;;;;;6.03;2.35;;;;;;;;;;8420013;27;20857;-72
2021/08/16 13:41:00;;;;;;;6.53;2.03;;;;;;;;;;8419867;27;21128;-73
2021/08/16 13:45:16;;;;;;;9.40;3.28;;;;;;;;;;8420297;27;20929;-72
2021/08/16 13:49:34;;;;;;;5.72;2.22;;;;;;;;;;8419930;27;21121;-73
2021/08/16 13:53:51;;;;;;;8.45;2.30;;;;;;;;;;8420262;27;20917;-72
2021/08/16 13:58:04;;;;;;;4.63;1.83;;;;;;;;;;8378116;27;1241301;-72
2021/08/16 14:02:21;;;;;;;11.07;2.30;;;;;;;;;;8419978;27;20633;-72
2021/08/16 14:06:38;;;;;;;5.00;2.17;;;;;;;;;;8292407;27;21056;-73
2021/08/16 14:10:57;;;;;;;8.32;2.17;;;;;;;;;;8419639;27;21059;-73
2021/08/16 14:15:11;;;;;;;8.32;2.13;;;;;;;;;;8379578;27;1262836;-74
2021/08/16 14:19:26;;;;;;;5.20;2.15;;;;;;;;;;8377285;27;1256132;-73
2021/08/16 14:23:41;;;;;;;4.47;2.15;;;;;;;;;;8378483;27;1247650;-73
2021/08/16 14:27:56;;;;;;;10.07;2.25;;;;;;;;;;8265995;27;20988;-72
2021/08/16 14:32:13;;;;;;;8.82;2.22;;;;;;;;;;8419431;27;20906;-73
2021/08/16 14:40:20;;;;;;;4.45;2.10;;;;;;;;;;8202732;27;1245762;-72
2021/08/16 14:44:34;;;;;;;2.70;1.77;;;;;;;;;;8377294;27;1250947;-73
2021/08/16 14:48:52;;;;;;;10.52;3.08;;;;;;;;;;8420229;27;21039;-73
2021/08/16 14:53:08;;;;;;;7.93;2.83;;;;;;;;;;8421368;27;20911;-74
2021/08/16 14:57:23;;;;;;;5.45;2.55;;;;;;;;;;8378001;27;1252157;-73
2021/08/16 15:01:37;;;;;;;4.40;2.65;;;;;;;;;;8377980;27;1248565;-73
2021/08/16 15:06:07;;;;;;;7.10;2.92;;;;;;;;;;8316878;27;20591;-73
2021/08/16 15:10:23;;;;;;;5.30;2.60;;;;;;;;;;8386668;27;21142;-72
2021/08/16 15:14:38;;;;;;;5.95;2.35;;;;;;;;;;8378705;27;1267868;-72
2021/08/16 15:18:54;;;;;;;5.82;2.40;;;;;;;;;;8420727;27;20872;-73
2021/08/16 15:23:10;;;;;;;5.60;2.40;;;;;;;;;;8422024;27;21074;-73
2021/08/16 15:27:25;;;;;;;7.88;2.75;;;;;;;;;;8420238;27;20884;-72
2021/08/16 15:31:41;;;;;;;4.68;2.35;;;;;;;;;;8350672;27;20946;-73
2021/08/16 15:35:59;;;;;;;10.75;1.90;;;;;;;;;;8419485;27;20863;-73
2021/08/16 15:40:15;;;;;;;6.30;2.20;;;;;;;;;;8419467;27;20550;-73
2021/08/16 15:44:33;;;;;;;6.60;2.45;;;;;;;;;;8419709;27;20618;-72
2021/08/16 15:48:48;;;;;;;4.72;2.30;;;;;;;;;;8376991;27;1261758;-73
2021/08/16 15:53:04;;;;;;;5.07;2.50;;;;;;;;;;8420520;27;21334;-74
2021/08/16 15:57:19;;;;;;;11.48;3.08;;;;;;;;;;8420766;27;21044;-72
2021/08/16 16:01:36;;;;;;;5.72;2.65;;;;;;;;;;8420727;27;20633;-72
2021/08/16 16:05:54;;;;;;;5.97;2.45;;;;;;;;;;8419336;27;20625;-72
2021/08/16 16:10:11;;;;;;;6.57;2.30;;;;;;;;;;8419356;27;20864;-73
2021/08/16 16:14:27;;;;;;;8.43;2.67;;;;;;;;;;8419350;27;21039;-72
2021/08/16 16:18:43;;;;;;;7.45;2.63;;;;;;;;;;8317918;27;20869;-72
2021/08/16 16:23:00;;;;;;;9.85;2.70;;;;;;;;;;8419807;27;20868;-72
2021/08/16 16:27:16;;;;;;;6.78;2.30;;;;;;;;;;8419888;27;21053;-72
2021/08/16 16:31:33;;;;;;;9.32;2.67;;;;;;;;;;8419919;27;20828;-73
2021/08/16 16:35:47;;;;;;;3.33;2.22;;;;;;;;;;8352621;27;1251539;-72
2021/08/16 16:40:02;;;;;;;8.70;3.30;;;;;;;;;;8377202;27;1258401;-73
2021/08/16 16:44:19;;;;;;;4.22;2.40;;;;;;;;;;8419623;27;20864;-72
2021/08/16 16:48:38;;;;;;;9.63;3.00;;;;;;;;;;8420643;27;20912;-73
2021/08/16 16:52:55;;;;;;;2.83;1.98;;;;;;;;;;8420085;27;20909;-73
2021/08/16 16:57:12;;;;;;;7.18;2.45;;;;;;;;;;8419962;27;20843;-73
2021/08/16 17:01:27;;;;;;;6.38;2.42;;;;;;;;;;8419395;27;21091;-73
2021/08/16 17:05:45;;;;;;;13.65;3.00;;;;;;;;;;8420125;27;20849;-73
2021/08/16 17:10:01;;;;;;;7.60;3.20;;;;;;;;;;8419770;27;21119;-74
2021/08/16 17:14:16;;;;;;;6.57;2.65;;;;;;;;;;8419145;27;20561;-72
2021/08/16 17:18:34;;;;;;;7.13;2.55;;;;;;;;;;8420742;27;21051;-73
2021/08/16 17:22:50;;;;;;;9.85;2.40;;;;;;;;;;8419865;27;21039;-73
2021/08/16 17:27:08;;;;;;;5.78;2.65;;;;;;;;;;8420381;27;20901;-72
2021/08/16 17:31:24;;;;;;;10.05;2.53;;;;;;;;;;8420327;27;20836;-73
2021/08/16 17:35:42;;;;;;;6.82;3.10;;;;;;;;;;8419476;27;21047;-72
2021/08/16 17:39:57;;;;;;;5.33;2.20;;;;;;;;;;8377770;27;1255000;-72
2021/08/16 17:44:11;;;;;;;4.63;2.80;;;;;;;;;;8378740;27;1242870;-73
2021/08/16 17:48:26;;;;;;;9.40;3.42;;;;;;;;;;8377221;27;1261850;-72
2021/08/16 17:52:41;;;;;;;8.43;2.93;;;;;;;;;;8377675;27;1246224;-73
2021/08/16 17:56:58;;;;;;;12.82;3.30;;;;;;;;;;8421779;27;20887;-71
2021/08/16 18:01:13;;;;;;;10.93;3.33;;;;;;;;;;8378534;27;1246417;-72
2021/08/16 18:05:29;;;;;;;9.77;3.37;;;;;;;;;;8380323;27;1239151;-73
2021/08/16 18:09:46;;;;;;;5.65;3.38;;;;;;;;;;8419897;27;20964;-72
2021/08/16 18:14:00;;;;;;;12.30;4.78;;;;;;;;;;8377750;27;1250348;-72
2021/08/16 18:18:17;;;;;;;15.88;5.57;;;;;;;;;;8419291;27;21051;-72
2021/08/16 18:22:35;;;;;;;15.00;5.60;;;;;;;;;;8419655;27;21048;-72
2021/08/16 18:26:51;;;;;;;15.27;6.13;;;;;;;;;;8419946;27;21111;-71
2021/08/16 18:31:07;;;;;;;15.10;5.65;;;;;;;;;;8420322;27;20880;-72
2021/08/16 18:35:23;;;;;;;6.88;4.00;;;;;;;;;;8341076;27;20920;-72
2021/08/16 18:39:41;;;;;;;8.70;3.10;;;;;;;;;;8377961;27;1250988;-72
2021/08/16 18:43:58;;;;;;;17.45;5.07;;;;;;;;;;8419887;27;21051;-73
2021/08/16 18:48:12;;;;;;;9.75;3.50;;;;;;;;;;8377082;27;1266329;-72
2021/08/16 18:52:26;;;;;;;13.75;3.33;;;;;;;;;;8378913;27;1240420;-72
2021/08/16 18:56:42;;;;;;;7.63;3.25;;;;;;;;;;8377434;27;1270279;-73
2021/08/16 19:00:58;;;;;;;5.32;3.17;;;;;;;;;;8420397;27;20896;-72
2021/08/16 19:05:16;;;;;;;7.93;2.72;;;;;;;;;;8419412;27;21124;-72
2021/08/16 19:09:33;;;;;;;8.10;2.85;;;;;;;;;;8419377;27;20910;-75
2021/08/16 19:13:48;;;;;;;8.02;3.10;;;;;;;;;;8454513;27;21042;-72
2021/08/16 19:18:05;;;;;;;9.70;3.70;;;;;;;;;;8419981;27;20910;-72
2021/08/16 19:22:22;;;;;;;4.82;2.88;;;;;;;;;;8419859;27;20887;-73
2021/08/16 19:26:37;;;;;;;12.00;3.38;;;;;;;;;;8419857;27;20557;-72
2021/08/16 19:30:53;;;;;;;13.37;3.43;;;;;;;;;;8379360;27;1243904;-72
2021/08/16 19:35:08;;;;;;;9.20;3.23;;;;;;;;;;8377942;27;1252233;-72
2021/08/16 19:39:25;;;;;;;8.77;2.63;;;;;;;;;;8419622;27;20894;-72
2021/08/16 19:43:39;;;;;;;4.93;2.95;;;;;;;;;;8378251;27;1250982;-72
2021/08/16 19:47:53;;;;;;;9.20;2.83;;;;;;;;;;8323191;27;1257957;-73
2021/08/16 19:52:11;;;;;;;9.68;3.25;;;;;;;;;;8420958;27;20933;-72
2021/08/16 19:56:28;;;;;;;7.90;3.92;;;;;;;;;;8419697;27;20826;-72
2021/08/16 20:00:44;;;;;;;9.80;3.13;;;;;;;;;;8421475;27;20907;-73
2021/08/16 20:05:02;;;;;;;7.32;3.20;;;;;;;;;;8421902;27;21107;-73
2021/08/16 20:09:19;;;;;;;6.53;3.00;;;;;;;;;;8420511;27;20910;-72
2021/08/16 20:13:35;;;;;;;5.55;2.78;;;;;;;;;;8379254;27;1269037;-72
2021/08/16 20:17:52;;;;;;;6.32;2.88;;;;;;;;;;8422233;27;20894;-72
2021/08/16 20:21:58;;;;;;;6.18;3.20;;;;;;;;;;8385578;28;20351;-73
2021/08/16 20:26:03;;;;;;;10.65;3.22;;;;;;;;;;8385389;28;20484;-73
2021/08/16 20:30:09;;;;;;;11.38;3.83;;;;;;;;;;8387445;28;20044;-73
2021/08/16 20:34:14;;;;;;;9.70;2.90;;;;;;;;;;8385709;28;20464;-73
2021/08/16 20:38:22;;;;;;;4.57;2.80;;;;;;;;;;8383272;28;20504;-72
2021/08/16 20:42:26;;;;;;;9.43;3.65;;;;;;;;;;8385568;28;20343;-73
2021/08/16 20:46:31;;;;;;;6.55;3.70;;;;;;;;;;8383250;28;20372;-73
2021/08/16 20:50:37;;;;;;;8.85;3.78;;;;;;;;;;8385550;28;20473;-72
2021/08/16 20:54:43;;;;;;;6.38;4.00;;;;;;;;;;8350536;28;20058;-73
2021/08/16 20:58:48;;;;;;;8.23;4.43;;;;;;;;;;8383274;28;20043;-72
2021/08/16 21:02:53;;;;;;;10.25;3.88;;;;;;;;;;8385118;28;20070;-72
2021/08/16 21:06:59;;;;;;;7.00;3.45;;;;;;;;;;8385210;28;20385;-72
2021/08/16 21:11:05;;;;;;;6.10;3.88;;;;;;;;;;8384015;28;20433;-73
2021/08/16 21:15:11;;;;;;;6.38;3.35;;;;;;;;;;8364832;28;20490;-73
2021/08/16 21:19:16;;;;;;;14.02;3.45;;;;;;;;;;8385176;28;20466;-74
2021/08/16 21:23:21;;;;;;;11.50;3.60;;;;;;;;;;8382443;28;20355;-73
2021/08/16 21:27:26;;;;;;;4.25;2.83;;;;;;;;;;8342178;28;20351;-72
2021/08/16 21:31:34;;;;;;;6.80;3.50;;;;;;;;;;8328293;28;20459;-73
2021/08/16 21:35:41;;;;;;;6.90;3.47;;;;;;;;;;8325907;28;20348;-72
2021/08/16 21:39:46;;;;;;;5.32;3.70;;;;;;;;;;8330015;28;20389;-73
2021/08/16 21:43:51;;;;;;;9.27;3.55;;;;;;;;;;8325787;28;20044;-72
2021/08/16 21:47:57;;;;;;;8.63;3.33;;;;;;;;;;8309969;28;20332;-72
2021/08/16 21:52:03;;;;;;;8.38;3.65;;;;;;;;;;8327543;28;20493;-72
2021/08/16 21:56:08;;;;;;;7.30;3.45;;;;;;;;;;8329640;28;20040;-74
2021/08/16 22:00:15;;;;;;;6.30;3.20;;;;;;;;;;8329522;28;20058;-72
2021/08/16 22:04:20;;;;;;;5.93;3.20;;;;;;;;;;8327400;28;20052;-73
2021/08/16 22:08:25;;;;;;;4.47;3.10;;;;;;;;;;8327050;28;20381;-73
2021/08/16 22:12:30;;;;;;;6.30;2.65;;;;;;;;;;8325000;28;20382;-73
2021/08/16 22:16:35;;;;;;;7.38;3.08;;;;;;;;;;8323992;28;20471;-73
2021/08/16 22:20:41;;;;;;;4.25;2.72;;;;;;;;;;8328506;28;20374;-73
2021/08/16 22:24:46;;;;;;;4.20;2.75;;;;;;;;;;8324481;28;20040;-73
2021/08/16 22:28:51;;;;;;;6.63;3.00;;;;;;;;;;8325761;28;20087;-73
2021/08/16 22:32:57;;;;;;;8.10;3.40;;;;;;;;;;8325518;28;20493;-74
2021/08/16 22:37:03;;;;;;;7.50;3.42;;;;;;;;;;8325790;28;20451;-73
2021/08/16 22:41:08;;;;;;;9.93;3.95;;;;;;;;;;8323875;28;20455;-72
2021/08/16 22:45:13;;;;;;;7.25;3.13;;;;;;;;;;8326201;28;20509;-73
2021/08/16 22:49:20;;;;;;;6.55;3.90;;;;;;;;;;8307516;28;20376;-74
2021/08/16 22:53:24;;;;;;;7.45;3.35;;;;;;;;;;8325506;28;20455;-75
2021/08/16 22:57:30;;;;;;;7.43;2.95;;;;;;;;;;8326022;28;20374;-78
2021/08/16 23:01:35;;;;;;;5.28;2.80;;;;;;;;;;8322187;28;20483;-80
2021/08/16 23:05:41;;;;;;;8.35;3.20;;;;;;;;;;8323862;28;20505;-80
2021/08/16 23:09:46;;;;;;;5.70;2.80;;;;;;;;;;8323500;28;20482;-79
2021/08/16 23:13:55;;;;;;;9.23;3.15;;;;;;;;;;8307243;28;20464;-79
2021/08/16 23:17:59;;;;;;;13.45;4.55;;;;;;;;;;8260542;28;20364;-80
2021/08/16 23:22:04;;;;;;;16.85;5.50;;;;;;;;;;8259580;28;20361;-80
2021/08/16 23:26:10;;;;;;;18.33;5.32;;;;;;;;;;8257773;28;20468;-77
2021/08/16 23:30:16;;;;;;;10.20;4.47;;;;;;;;;;8257854;28;20479;-77
2021/08/16 23:34:21;;;;;;;5.60;2.75;;;;;;;;;;8258909;28;20041;-80
2021/08/16 23:38:27;;;;;;;5.57;2.05;;;;;;;;;;8257766;28;20376;-81
2021/08/16 23:42:32;;;;;;;3.92;1.60;;;;;;;;;;8258329;28;20484;-81
2021/08/16 23:46:37;;;;;;;5.50;2.38;;;;;;;;;;8255664;28;20052;-77
2021/08/16 23:50:42;;;;;;;4.38;2.00;;;;;;;;;;8256947;28;20041;-79
2021/08/16 23:54:47;;;;;;;3.90;2.20;;;;;;;;;;8240516;28;20410;-77
2021/08/16 23:58:53;;;;;;;6.70;1.85;;;;;;;;;;8260467;28;20053;-79
